Time;durP1;ratioP1;P1;durP2;ratioP2;P2;SDS_P1;SDS_P2;PMS_P1;PMS_P2;Temp;Humidity;BMP_temperature;BMP_pressure;BME280_temperature;BME280_humidity;BME280_pressure;Samples;Min_cycle;Max_cycle;Signal;HPM_P1;HPM_P2
2024/02/16 00:00:17;;;;;;;0.10;0.10;;;;;;;;;;5016905;28;20418;-87
2024/02/16 00:02:44;;;;;;;0.10;0.10;;;;;;;;;;5017145;28;20042;-86
2024/02/16 00:05:11;;;;;;;0.10;0.10;;;;;;;;;;5017137;28;20037;-86
2024/02/16 00:07:37;;;;;;;0.10;0.10;;;;;;;;;;5016927;28;20045;-86
2024/02/16 00:10:04;;;;;;;0.10;0.10;;;;;;;;;;5016675;28;20096;-86
2024/02/16 00:12:31;;;;;;;0.10;0.10;;;;;;;;;;5016614;28;20595;-86
2024/02/16 00:14:57;;;;;;;0.10;0.10;;;;;;;;;;5016566;28;20132;-86
2024/02/16 00:17:26;;;;;;;0.10;0.10;;;;;;;;;;5016530;28;20041;-85
2024/02/16 00:19:52;;;;;;;0.15;0.15;;;;;;;;;;5016405;28;20037;-85
2024/02/16 00:22:19;;;;;;;0.20;0.20;;;;;;;;;;5016889;28;20049;-85
2024/02/16 00:24:45;;;;;;;0.10;0.10;;;;;;;;;;5016431;28;20073;-85
2024/02/16 00:27:11;;;;;;;0.10;0.10;;;;;;;;;;5016392;28;20033;-86
2024/02/16 00:29:38;;;;;;;0.20;0.20;;;;;;;;;;5016619;28;20091;-86
2024/02/16 00:32:06;;;;;;;0.10;0.10;;;;;;;;;;5016308;28;20084;-86
2024/02/16 00:34:32;;;;;;;0.10;0.10;;;;;;;;;;5000069;28;20041;-85
2024/02/16 00:36:58;;;;;;;0.10;0.10;;;;;;;;;;5016239;28;20052;-85
2024/02/16 00:39:24;;;;;;;0.10;0.10;;;;;;;;;;5016118;28;20405;-85
2024/02/16 00:41:51;;;;;;;0.20;0.20;;;;;;;;;;5016172;28;20045;-86
2024/02/16 00:44:17;;;;;;;0.10;0.10;;;;;;;;;;5016487;28;20041;-86
2024/02/16 00:46:44;;;;;;;0.20;0.20;;;;;;;;;;4999683;28;20038;-85
2024/02/16 00:49:10;;;;;;;0.20;0.20;;;;;;;;;;5015979;28;20122;-86
2024/02/16 00:51:36;;;;;;;0.10;0.10;;;;;;;;;;5015926;28;20048;-86
2024/02/16 00:54:03;;;;;;;0.10;0.10;;;;;;;;;;5015762;28;20076;-85
2024/02/16 00:56:29;;;;;;;0.20;0.20;;;;;;;;;;5015839;28;20103;-85
2024/02/16 00:58:55;;;;;;;0.30;0.30;;;;;;;;;;4999385;28;20052;-86
2024/02/16 01:01:22;;;;;;;0.10;0.10;;;;;;;;;;5016055;28;20041;-85
2024/02/16 01:03:51;;;;;;;0.20;0.20;;;;;;;;;;5015310;28;20044;-85
2024/02/16 01:06:18;;;;;;;0.20;0.20;;;;;;;;;;5015658;28;20079;-85
2024/02/16 01:08:44;;;;;;;0.20;0.20;;;;;;;;;;5015674;28;20038;-85
2024/02/16 01:11:10;;;;;;;0.10;0.10;;;;;;;;;;4999076;28;20045;-85
2024/02/16 01:13:36;;;;;;;0.20;0.20;;;;;;;;;;5015576;28;20438;-85
2024/02/16 01:16:03;;;;;;;0.10;0.10;;;;;;;;;;5015509;28;20453;-86
2024/02/16 01:18:30;;;;;;;0.10;0.10;;;;;;;;;;5015609;28;20505;-86
2024/02/16 01:20:56;;;;;;;0.10;0.10;;;;;;;;;;5015626;28;20397;-85
2024/02/16 01:23:22;;;;;;;0.10;0.10;;;;;;;;;;5032051;28;20182;-85
2024/02/16 01:25:48;;;;;;;0.93;0.82;;;;;;;;;;5015246;28;20041;-85
2024/02/16 01:28:14;;;;;;;0.20;0.20;;;;;;;;;;5015231;28;20041;-85
2024/02/16 01:30:40;;;;;;;0.10;0.10;;;;;;;;;;5015206;28;20080;-85
2024/02/16 01:33:07;;;;;;;0.30;0.30;;;;;;;;;;4998818;28;20117;-83
2024/02/16 01:35:33;;;;;;;0.10;0.10;;;;;;;;;;5015044;28;20045;-85
2024/02/16 01:37:59;;;;;;;0.20;0.20;;;;;;;;;;5015204;28;20037;-85
2024/02/16 01:40:26;;;;;;;0.10;0.10;;;;;;;;;;5015072;28;20051;-85
2024/02/16 01:42:55;;;;;;;0.10;0.10;;;;;;;;;;5015233;28;20073;-84
2024/02/16 01:45:21;;;;;;;0.10;0.10;;;;;;;;;;5015031;28;20087;-85
2024/02/16 01:47:48;;;;;;;0.10;0.10;;;;;;;;;;5014961;28;20044;-84
2024/02/16 01:50:15;;;;;;;0.10;0.10;;;;;;;;;;5015017;28;20045;-88
2024/02/16 01:52:41;;;;;;;0.10;0.10;;;;;;;;;;5015640;28;20511;-85
2024/02/16 01:55:10;;;;;;;0.10;0.10;;;;;;;;;;5014589;28;20493;-86
2024/02/16 01:57:47;;;;;;;0.13;0.13;;;;;;;;;;5014706;28;20038;-87
2024/02/16 02:00:17;;;;;;;0.10;0.10;;;;;;;;;;5014671;28;20104;-85
2024/02/16 02:02:46;;;;;;;0.10;0.10;;;;;;;;;;5014621;28;20045;-87
2024/02/16 02:05:14;;;;;;;0.10;0.10;;;;;;;;;;5014525;28;20038;-84
2024/02/16 02:07:41;;;;;;;0.10;0.10;;;;;;;;;;5014813;28;20057;-85
2024/02/16 02:10:07;;;;;;;0.10;0.10;;;;;;;;;;5014517;28;20041;-85
2024/02/16 02:12:33;;;;;;;0.10;0.10;;;;;;;;;;5014797;28;20056;-86
2024/02/16 02:14:59;;;;;;;0.10;0.10;;;;;;;;;;5013905;28;20037;-86
2024/02/16 02:17:25;;;;;;;0.10;0.10;;;;;;;;;;5014513;28;20045;-85
2024/02/16 02:19:51;;;;;;;0.10;0.10;;;;;;;;;;4998272;28;20048;-85
2024/02/16 02:22:19;;;;;;;0.10;0.10;;;;;;;;;;5014761;28;20099;-86
2024/02/16 02:24:45;;;;;;;0.10;0.10;;;;;;;;;;5014331;28;20048;-86
2024/02/16 02:27:14;;;;;;;0.10;0.10;;;;;;;;;;5014425;28;20091;-86
2024/02/16 02:29:40;;;;;;;0.20;0.20;;;;;;;;;;5014296;28;20093;-86
2024/02/16 02:32:07;;;;;;;0.10;0.10;;;;;;;;;;5014333;28;20091;-86
2024/02/16 02:34:33;;;;;;;0.20;0.20;;;;;;;;;;5014329;28;20128;-86
2024/02/16 02:36:59;;;;;;;0.10;0.10;;;;;;;;;;5014347;28;20073;-86
2024/02/16 02:39:25;;;;;;;0.10;0.10;;;;;;;;;;5014361;28;20041;-86
2024/02/16 02:41:51;;;;;;;0.10;0.10;;;;;;;;;;5014140;28;20144;-86
2024/02/16 02:44:19;;;;;;;0.10;0.10;;;;;;;;;;5014175;28;20045;-86
2024/02/16 02:46:45;;;;;;;0.10;0.10;;;;;;;;;;5014338;28;20357;-86
2024/02/16 02:49:11;;;;;;;0.15;0.15;;;;;;;;;;5014226;28;20209;-86
2024/02/16 02:51:37;;;;;;;0.20;0.20;;;;;;;;;;5014172;28;20053;-86
2024/02/16 02:54:04;;;;;;;0.10;0.10;;;;;;;;;;5013985;28;20523;-85
2024/02/16 02:56:30;;;;;;;0.10;0.10;;;;;;;;;;5014472;28;20401;-86
2024/02/16 02:58:56;;;;;;;0.10;0.10;;;;;;;;;;5014275;28;20107;-85
2024/02/16 03:01:22;;;;;;;0.10;0.10;;;;;;;;;;5013927;28;20087;-86
2024/02/16 03:03:48;;;;;;;0.10;0.10;;;;;;;;;;5014048;28;20043;-85
2024/02/16 03:06:18;;;;;;;0.10;0.10;;;;;;;;;;5014317;28;20041;-86
2024/02/16 03:08:44;;;;;;;0.10;0.10;;;;;;;;;;5014275;28;20443;-85
2024/02/16 03:11:10;;;;;;;0.20;0.20;;;;;;;;;;4997717;28;20124;-86
2024/02/16 03:13:37;;;;;;;0.10;0.10;;;;;;;;;;5014243;28;20041;-86
2024/02/16 03:16:03;;;;;;;0.10;0.10;;;;;;;;;;5013967;28;20072;-87
2024/02/16 03:18:34;;;;;;;0.20;0.20;;;;;;;;;;5014004;28;20045;-86
2024/02/16 03:21:00;;;;;;;0.10;0.10;;;;;;;;;;5014247;28;20095;-85
2024/02/16 03:23:26;;;;;;;0.17;0.17;;;;;;;;;;4997728;28;20049;-85
2024/02/16 03:25:52;;;;;;;0.10;0.10;;;;;;;;;;5013940;28;20117;-86
2024/02/16 03:28:18;;;;;;;0.10;0.10;;;;;;;;;;5017755;28;20045;-85
2024/02/16 03:30:44;;;;;;;0.10;0.10;;;;;;;;;;5017607;28;20444;-85
2024/02/16 03:33:10;;;;;;;0.10;0.10;;;;;;;;;;5017456;28;20061;-85
2024/02/16 03:35:36;;;;;;;0.10;0.10;;;;;;;;;;5017678;28;20111;-86
2024/02/16 03:38:03;;;;;;;0.20;0.20;;;;;;;;;;5017386;28;20041;-86
2024/02/16 03:40:29;;;;;;;0.10;0.10;;;;;;;;;;5017450;28;20095;-86
2024/02/16 03:42:55;;;;;;;0.55;0.47;;;;;;;;;;5017463;28;20045;-86
2024/02/16 03:45:21;;;;;;;0.10;0.10;;;;;;;;;;5017164;28;20477;-85
2024/02/16 03:47:48;;;;;;;0.70;0.30;;;;;;;;;;5017442;28;20051;-86
2024/02/16 03:50:14;;;;;;;0.10;0.10;;;;;;;;;;5017029;28;20046;-85
2024/02/16 03:52:41;;;;;;;0.20;0.20;;;;;;;;;;5017347;28;20059;-86
2024/02/16 03:55:07;;;;;;;0.10;0.10;;;;;;;;;;5016807;28;20061;-86
2024/02/16 03:57:33;;;;;;;0.10;0.10;;;;;;;;;;5017163;28;20115;-85
2024/02/16 03:59:59;;;;;;;0.10;0.10;;;;;;;;;;5016972;28;20477;-86
2024/02/16 04:02:25;;;;;;;0.20;0.20;;;;;;;;;;5016906;28;20038;-86
2024/02/16 04:04:51;;;;;;;0.10;0.10;;;;;;;;;;5016825;28;20124;-85
2024/02/16 04:07:17;;;;;;;0.20;0.20;;;;;;;;;;5017006;28;20484;-86
2024/02/16 04:09:43;;;;;;;1.95;0.20;;;;;;;;;;5016724;28;20041;-85
2024/02/16 04:12:10;;;;;;;0.10;0.10;;;;;;;;;;5000327;28;20057;-86
2024/02/16 04:14:36;;;;;;;0.10;0.10;;;;;;;;;;5016652;28;20117;-86
2024/02/16 04:17:02;;;;;;;0.10;0.10;;;;;;;;;;5016941;28;20052;-85
2024/02/16 04:19:28;;;;;;;0.10;0.10;;;;;;;;;;5016664;28;20077;-85
2024/02/16 04:21:54;;;;;;;0.13;0.13;;;;;;;;;;5016402;28;20261;-84
2024/02/16 04:24:20;;;;;;;0.10;0.10;;;;;;;;;;5016754;28;20413;-85
2024/02/16 04:26:46;;;;;;;0.10;0.10;;;;;;;;;;5016430;28;20143;-85
2024/02/16 04:29:12;;;;;;;0.10;0.10;;;;;;;;;;5016290;28;20044;-85
2024/02/16 04:31:42;;;;;;;0.10;0.10;;;;;;;;;;5000066;28;20041;-85
2024/02/16 04:34:08;;;;;;;0.10;0.10;;;;;;;;;;5016454;28;20377;-86
2024/02/16 04:36:35;;;;;;;0.10;0.10;;;;;;;;;;5016302;28;20488;-85
2024/02/16 04:39:01;;;;;;;0.10;0.10;;;;;;;;;;5015460;28;20041;-85
2024/02/16 04:41:28;;;;;;;0.20;0.20;;;;;;;;;;5015873;28;20091;-85
2024/02/16 04:43:54;;;;;;;0.10;0.10;;;;;;;;;;4999874;28;20198;-85
2024/02/16 04:46:21;;;;;;;0.10;0.10;;;;;;;;;;5016044;28;20040;-85
2024/02/16 04:48:47;;;;;;;0.10;0.10;;;;;;;;;;5015833;28;20049;-87
2024/02/16 04:51:13;;;;;;;0.10;0.10;;;;;;;;;;5016128;28;20513;-85
2024/02/16 04:53:39;;;;;;;0.17;0.17;;;;;;;;;;5015699;28;20056;-87
2024/02/16 04:56:05;;;;;;;0.10;0.10;;;;;;;;;;5015826;28;20060;-86
2024/02/16 04:58:31;;;;;;;0.20;0.20;;;;;;;;;;5015860;28;20053;-85
2024/02/16 05:00:58;;;;;;;0.20;0.20;;;;;;;;;;5015833;28;20034;-87
2024/02/16 05:03:24;;;;;;;0.13;0.13;;;;;;;;;;5015776;28;20041;-86
2024/02/16 05:05:52;;;;;;;0.20;0.20;;;;;;;;;;5015729;28;20047;-86
2024/02/16 05:08:18;;;;;;;0.10;0.10;;;;;;;;;;5015696;28;20492;-85
2024/02/16 05:10:44;;;;;;;0.20;0.20;;;;;;;;;;5015515;28;20037;-86
2024/02/16 05:13:11;;;;;;;0.10;0.10;;;;;;;;;;5015549;28;20497;-86
2024/02/16 05:15:37;;;;;;;0.10;0.10;;;;;;;;;;5015625;28;20041;-86
2024/02/16 05:18:03;;;;;;;0.10;0.10;;;;;;;;;;5015871;28;20094;-86
2024/02/16 05:20:29;;;;;;;0.13;0.13;;;;;;;;;;5015599;28;20041;-86
2024/02/16 05:22:56;;;;;;;0.10;0.10;;;;;;;;;;5015621;28;20049;-86
2024/02/16 05:25:22;;;;;;;0.10;0.10;;;;;;;;;;5015756;28;20045;-85
2024/02/16 05:27:49;;;;;;;0.13;0.13;;;;;;;;;;5015260;28;20045;-86
2024/02/16 05:30:15;;;;;;;0.15;0.15;;;;;;;;;;5015290;28;20049;-86
2024/02/16 05:32:41;;;;;;;0.10;0.10;;;;;;;;;;5015448;28;20523;-86
2024/02/16 05:35:16;;;;;;;0.10;0.10;;;;;;;;;;5015707;28;20034;-87
2024/02/16 05:37:47;;;;;;;0.20;0.20;;;;;;;;;;5015130;28;20432;-87
2024/02/16 05:40:22;;;;;;;0.30;0.30;;;;;;;;;;5015318;28;20041;-85
2024/02/16 05:42:48;;;;;;;0.17;0.17;;;;;;;;;;5015244;28;20048;-86
2024/02/16 05:45:15;;;;;;;0.10;0.10;;;;;;;;;;5015127;28;20053;-86
2024/02/16 05:47:47;;;;;;;0.20;0.20;;;;;;;;;;5014982;28;20041;-86
2024/02/16 05:50:13;;;;;;;;;;;;;;;;;;4998859;28;20045;-86
2024/02/16 05:52:40;;;;;;;0.10;0.10;;;;;;;;;;5015007;28;19971;-86
2024/02/16 05:55:07;;;;;;;0.20;0.20;;;;;;;;;;5015167;28;20057;-85
2024/02/16 05:57:33;;;;;;;0.10;0.10;;;;;;;;;;5014972;28;20342;-86
2024/02/16 05:59:59;;;;;;;0.10;0.10;;;;;;;;;;5014828;28;20109;-86
2024/02/16 06:02:25;;;;;;;0.10;0.10;;;;;;;;;;5014725;28;20042;-85
2024/02/16 06:04:52;;;;;;;0.10;0.10;;;;;;;;;;5014968;28;20478;-86
2024/02/16 06:07:18;;;;;;;0.10;0.10;;;;;;;;;;5014804;28;20512;-86
2024/02/16 06:09:44;;;;;;;0.65;0.20;;;;;;;;;;5014909;28;20307;-86
2024/02/16 06:12:12;;;;;;;0.10;0.10;;;;;;;;;;4998780;28;20041;-86
2024/02/16 06:14:38;;;;;;;0.20;0.20;;;;;;;;;;5014797;28;20041;-86
2024/02/16 06:17:04;;;;;;;0.10;0.10;;;;;;;;;;5014396;28;20053;-86
2024/02/16 06:19:30;;;;;;;0.10;0.10;;;;;;;;;;5014538;28;20056;-86
2024/02/16 06:21:56;;;;;;;0.10;0.10;;;;;;;;;;4998322;28;20038;-86
2024/02/16 06:24:23;;;;;;;0.10;0.10;;;;;;;;;;5014471;28;20497;-86
2024/02/16 06:26:50;;;;;;;0.10;0.10;;;;;;;;;;5014590;28;20099;-86
2024/02/16 06:29:16;;;;;;;0.10;0.10;;;;;;;;;;5014679;28;20470;-85
2024/02/16 06:31:42;;;;;;;0.10;0.10;;;;;;;;;;5014483;28;20041;-86
2024/02/16 06:34:08;;;;;;;0.10;0.10;;;;;;;;;;5014804;28;20045;-85
2024/02/16 06:36:35;;;;;;;0.15;0.15;;;;;;;;;;5014379;28;20037;-85
2024/02/16 06:39:01;;;;;;;0.10;0.10;;;;;;;;;;5014256;28;20045;-85
2024/02/16 06:41:27;;;;;;;0.22;0.20;;;;;;;;;;5014259;28;20033;-86
2024/02/16 06:43:53;;;;;;;0.10;0.10;;;;;;;;;;5014236;28;20038;-86
2024/02/16 06:46:20;;;;;;;0.13;0.13;;;;;;;;;;5014303;28;20033;-85
2024/02/16 06:48:46;;;;;;;0.20;0.20;;;;;;;;;;5014130;28;20554;-85
2024/02/16 06:51:13;;;;;;;0.20;0.20;;;;;;;;;;5014533;28;20041;-86
2024/02/16 06:53:39;;;;;;;0.10;0.10;;;;;;;;;;5015251;28;20047;-86
2024/02/16 06:56:05;;;;;;;0.10;0.10;;;;;;;;;;5014107;28;20059;-91
2024/02/16 06:58:31;;;;;;;0.10;0.10;;;;;;;;;;5014509;28;20041;-86
2024/02/16 07:01:02;;;;;;;0.10;0.10;;;;;;;;;;5014103;28;20091;-88
2024/02/16 07:03:29;;;;;;;0.10;0.10;;;;;;;;;;5018174;28;20040;-87
2024/02/16 07:05:58;;;;;;;0.20;0.20;;;;;;;;;;5018391;28;20128;-87
2024/02/16 07:08:25;;;;;;;0.10;0.10;;;;;;;;;;5018045;28;20091;-88
2024/02/16 07:10:52;;;;;;;0.10;0.10;;;;;;;;;;5001625;28;20049;-86
2024/02/16 07:13:19;;;;;;;0.10;0.10;;;;;;;;;;5017974;28;20045;-86
2024/02/16 07:15:45;;;;;;;0.50;0.50;;;;;;;;;;5018304;28;20136;-87
2024/02/16 07:18:12;;;;;;;0.10;0.10;;;;;;;;;;5017792;28;20049;-86
2024/02/16 07:20:38;;;;;;;0.10;0.10;;;;;;;;;;5017733;28;20041;-86
2024/02/16 07:23:04;;;;;;;0.10;0.10;;;;;;;;;;5017681;28;20108;-86
2024/02/16 07:25:32;;;;;;;0.20;0.20;;;;;;;;;;5018014;28;20128;-87
2024/02/16 07:27:58;;;;;;;0.15;0.15;;;;;;;;;;5017568;28;20096;-86
2024/02/16 07:30:24;;;;;;;0.20;0.20;;;;;;;;;;5017581;28;20045;-86
2024/02/16 07:32:52;;;;;;;1.65;0.68;;;;;;;;;;5001428;28;20056;-85
2024/02/16 07:35:18;;;;;;;0.10;0.10;;;;;;;;;;5017724;28;20078;-85
2024/02/16 07:37:44;;;;;;;0.10;0.10;;;;;;;;;;5017861;28;20114;-87
2024/02/16 07:40:10;;;;;;;0.10;0.10;;;;;;;;;;5000947;28;20057;-84
2024/02/16 07:42:40;;;;;;;0.10;0.10;;;;;;;;;;5017275;28;20048;-87
2024/02/16 07:45:06;;;;;;;0.10;0.10;;;;;;;;;;5017416;28;20035;-88
2024/02/16 07:47:32;;;;;;;0.10;0.10;;;;;;;;;;5017227;28;20033;-83
2024/02/16 07:49:58;;;;;;;0.10;0.10;;;;;;;;;;5017161;28;20037;-86
2024/02/16 07:52:24;;;;;;;0.10;0.10;;;;;;;;;;5017103;28;20091;-84
2024/02/16 07:54:51;;;;;;;0.10;0.10;;;;;;;;;;5017021;28;20057;-87
2024/02/16 07:57:17;;;;;;;0.10;0.10;;;;;;;;;;5000647;28;20458;-87
2024/02/16 07:59:43;;;;;;;0.10;0.10;;;;;;;;;;5017186;28;20072;-87
2024/02/16 08:02:15;;;;;;;0.10;0.10;;;;;;;;;;5017267;28;20432;-85
2024/02/16 08:04:41;;;;;;;0.13;0.13;;;;;;;;;;5017382;28;20413;-86
2024/02/16 08:07:07;;;;;;;0.10;0.10;;;;;;;;;;5016917;28;20045;-86
2024/02/16 08:09:34;;;;;;;0.10;0.10;;;;;;;;;;5016689;28;20045;-86
2024/02/16 08:12:05;;;;;;;0.20;0.20;;;;;;;;;;5016629;28;20045;-86
2024/02/16 08:14:32;;;;;;;0.10;0.10;;;;;;;;;;5015757;28;20042;-85
2024/02/16 08:16:58;;;;;;;0.10;0.10;;;;;;;;;;5016946;28;20208;-84
2024/02/16 08:19:24;;;;;;;0.28;0.28;;;;;;;;;;5016658;28;20042;-84
2024/02/16 08:21:50;;;;;;;0.20;0.20;;;;;;;;;;5016603;28;20064;-84
2024/02/16 08:24:16;;;;;;;0.20;0.20;;;;;;;;;;5015642;28;20068;-83
2024/02/16 08:26:42;;;;;;;0.13;0.13;;;;;;;;;;5016633;28;20045;-84
2024/02/16 08:29:09;;;;;;;0.10;0.10;;;;;;;;;;5016237;28;20087;-84
2024/02/16 08:31:35;;;;;;;0.30;0.30;;;;;;;;;;4999892;28;20497;-84
2024/02/16 08:34:06;;;;;;;0.10;0.10;;;;;;;;;;5016143;28;20073;-82
2024/02/16 08:36:33;;;;;;;0.10;0.10;;;;;;;;;;5016044;28;20528;-84
2024/02/16 08:39:00;;;;;;;0.20;0.20;;;;;;;;;;4999777;28;20060;-84
2024/02/16 08:41:26;;;;;;;0.10;0.10;;;;;;;;;;5015899;28;20044;-85
2024/02/16 08:43:52;;;;;;;0.10;0.10;;;;;;;;;;5015830;28;20476;-84
2024/02/16 08:46:18;;;;;;;0.10;0.10;;;;;;;;;;5015998;28;20038;-84
2024/02/16 08:48:48;;;;;;;0.10;0.10;;;;;;;;;;5016139;28;20045;-84
2024/02/16 08:51:14;;;;;;;0.10;0.10;;;;;;;;;;5015880;28;20204;-85
2024/02/16 08:53:40;;;;;;;0.28;0.28;;;;;;;;;;5015869;28;20048;-84
2024/02/16 08:56:11;;;;;;;0.20;0.20;;;;;;;;;;5015859;28;20144;-84
2024/02/16 08:58:37;;;;;;;0.10;0.10;;;;;;;;;;5015576;28;20088;-84
2024/02/16 09:01:03;;;;;;;0.10;0.10;;;;;;;;;;5015695;28;20124;-85
2024/02/16 09:03:34;;;;;;;0.10;0.10;;;;;;;;;;5015902;28;20044;-85
2024/02/16 09:06:01;;;;;;;0.20;0.20;;;;;;;;;;5032250;28;20111;-84
2024/02/16 09:08:30;;;;;;;0.10;0.10;;;;;;;;;;4999286;28;20092;-85
2024/02/16 09:10:57;;;;;;;0.10;0.10;;;;;;;;;;4999397;28;20080;-85
2024/02/16 09:13:23;;;;;;;0.20;0.20;;;;;;;;;;4999060;28;20073;-85
2024/02/16 09:15:51;;;;;;;0.10;0.10;;;;;;;;;;5015831;28;20045;-84
2024/02/16 09:18:17;;;;;;;0.10;0.10;;;;;;;;;;5015435;28;20124;-85
2024/02/16 09:20:44;;;;;;;0.10;0.10;;;;;;;;;;5015339;28;20496;-85
2024/02/16 09:23:10;;;;;;;0.10;0.10;;;;;;;;;;5015302;28;20091;-85
2024/02/16 09:25:36;;;;;;;0.20;0.20;;;;;;;;;;5014911;28;20037;-84
2024/02/16 09:28:02;;;;;;;0.20;0.20;;;;;;;;;;5015157;28;20049;-84
2024/02/16 09:30:28;;;;;;;0.30;0.30;;;;;;;;;;4998967;28;20045;-85
2024/02/16 09:32:54;;;;;;;0.20;0.20;;;;;;;;;;5015478;28;20045;-85
2024/02/16 09:35:21;;;;;;;0.10;0.10;;;;;;;;;;5015099;28;20077;-85
2024/02/16 09:37:47;;;;;;;0.10;0.10;;;;;;;;;;5015110;28;20041;-85
2024/02/16 09:40:13;;;;;;;0.10;0.10;;;;;;;;;;5014980;28;20091;-85
2024/02/16 09:42:39;;;;;;;0.10;0.10;;;;;;;;;;5014860;28;20044;-85
2024/02/16 09:45:11;;;;;;;0.10;0.10;;;;;;;;;;5014829;28;20120;-85
2024/02/16 09:47:37;;;;;;;0.15;0.15;;;;;;;;;;5014673;28;20037;-85
2024/02/16 09:50:05;;;;;;;0.20;0.20;;;;;;;;;;5014801;28;20171;-85
2024/02/16 09:52:31;;;;;;;0.10;0.10;;;;;;;;;;4998183;28;20073;-85
2024/02/16 09:54:57;;;;;;;0.75;0.55;;;;;;;;;;5014263;28;20056;-84
2024/02/16 09:57:24;;;;;;;0.20;0.20;;;;;;;;;;5014743;28;20041;-85
2024/02/16 09:59:50;;;;;;;0.10;0.10;;;;;;;;;;5014623;28;20049;-84
2024/02/16 10:02:17;;;;;;;0.10;0.10;;;;;;;;;;4998335;28;20040;-84
2024/02/16 10:04:43;;;;;;;0.20;0.20;;;;;;;;;;5014796;28;20037;-84
2024/02/16 10:07:09;;;;;;;0.17;0.17;;;;;;;;;;5031306;28;20194;-84
2024/02/16 10:09:35;;;;;;;0.10;0.10;;;;;;;;;;5014657;28;20503;-84
2024/02/16 10:12:01;;;;;;;0.20;0.20;;;;;;;;;;5014574;28;20390;-84
2024/02/16 10:14:28;;;;;;;0.10;0.10;;;;;;;;;;4998463;28;20073;-84
2024/02/16 10:17:02;;;;;;;0.10;0.10;;;;;;;;;;4998631;28;20046;-85
2024/02/16 10:19:31;;;;;;;0.10;0.10;;;;;;;;;;5014241;28;20053;-86
2024/02/16 10:22:08;;;;;;;0.15;0.15;;;;;;;;;;5014206;28;20040;-86
2024/02/16 10:24:34;;;;;;;0.20;0.20;;;;;;;;;;4998410;28;20037;-86
2024/02/16 10:27:00;;;;;;;0.38;0.30;;;;;;;;;;5014955;28;20119;-86
2024/02/16 10:29:27;;;;;;;0.30;0.30;;;;;;;;;;5014606;28;20084;-87
2024/02/16 10:31:53;;;;;;;0.40;0.40;;;;;;;;;;5014800;28;20503;-87
2024/02/16 10:34:19;;;;;;;0.15;0.15;;;;;;;;;;5014618;28;20430;-86
2024/02/16 10:36:46;;;;;;;0.20;0.20;;;;;;;;;;5012750;28;20045;-86
2024/02/16 10:39:13;;;;;;;0.10;0.10;;;;;;;;;;5014089;28;20115;-85
2024/02/16 10:41:40;;;;;;;0.20;0.20;;;;;;;;;;5013796;28;20196;-86
2024/02/16 10:44:06;;;;;;;0.10;0.10;;;;;;;;;;5014063;28;20044;-85
2024/02/16 10:46:33;;;;;;;0.90;0.17;;;;;;;;;;5013984;28;20034;-86
2024/02/16 10:48:59;;;;;;;0.57;0.32;;;;;;;;;;5013900;28;20041;-86
2024/02/16 10:51:26;;;;;;;0.20;0.20;;;;;;;;;;5013765;28;20061;-86
2024/02/16 10:53:53;;;;;;;0.10;0.10;;;;;;;;;;5014140;28;20385;-86
2024/02/16 10:56:28;;;;;;;0.20;0.20;;;;;;;;;;5013754;28;20045;-86
2024/02/16 10:58:54;;;;;;;0.10;0.10;;;;;;;;;;5013797;28;20207;-83
2024/02/16 11:01:20;;;;;;;0.52;0.52;;;;;;;;;;5032432;28;20043;-84
2024/02/16 11:03:46;;;;;;;0.10;0.10;;;;;;;;;;5035067;28;20048;-85
2024/02/16 11:06:19;;;;;;;0.25;0.25;;;;;;;;;;4998946;28;20041;-82
2024/02/16 11:08:45;;;;;;;0.20;0.20;;;;;;;;;;5015405;28;20041;-84
2024/02/16 11:11:12;;;;;;;0.30;0.30;;;;;;;;;;5013877;28;20065;-83
2024/02/16 11:13:39;;;;;;;0.40;0.40;;;;;;;;;;5013792;28;20072;-83
2024/02/16 11:16:09;;;;;;;0.30;0.30;;;;;;;;;;4997789;28;20044;-83
2024/02/16 11:18:39;;;;;;;0.10;0.10;;;;;;;;;;5013922;28;20123;-84
2024/02/16 11:21:07;;;;;;;0.20;0.20;;;;;;;;;;5013146;28;20040;-84
2024/02/16 11:23:34;;;;;;;0.20;0.20;;;;;;;;;;5013095;28;20489;-88
2024/02/16 11:26:04;;;;;;;0.30;0.30;;;;;;;;;;5014096;28;20037;-89
2024/02/16 11:28:32;;;;;;;0.10;0.10;;;;;;;;;;5013980;28;20144;-84
2024/02/16 11:30:58;;;;;;;0.15;0.15;;;;;;;;;;5013486;28;20041;-83
2024/02/16 11:33:26;;;;;;;0.38;0.30;;;;;;;;;;5013502;28;20041;-86
2024/02/16 11:35:59;;;;;;;0.17;0.15;;;;;;;;;;5013652;28;20042;-85
2024/02/16 11:38:25;;;;;;;0.20;0.20;;;;;;;;;;5013786;28;20493;-87
2024/02/16 11:40:55;;;;;;;0.10;0.10;;;;;;;;;;5013799;28;20370;-84
2024/02/16 11:43:24;;;;;;;0.30;0.30;;;;;;;;;;5014104;28;20068;-85
2024/02/16 11:45:50;;;;;;;0.20;0.20;;;;;;;;;;5014108;28;20041;-89
2024/02/16 11:48:23;;;;;;;0.13;0.13;;;;;;;;;;5015517;28;20515;-85
2024/02/16 11:50:49;;;;;;;0.43;0.40;;;;;;;;;;5017397;28;20485;-86
2024/02/16 11:53:17;;;;;;;0.10;0.10;;;;;;;;;;5033741;28;20481;-85
2024/02/16 11:55:48;;;;;;;0.20;0.20;;;;;;;;;;5016782;28;20049;-86
2024/02/16 11:58:14;;;;;;;0.55;0.55;;;;;;;;;;5016869;28;20099;-85
2024/02/16 12:00:41;;;;;;;0.50;0.25;;;;;;;;;;5000706;28;20041;-84
2024/02/16 12:03:07;;;;;;;0.20;0.20;;;;;;;;;;5016868;28;20052;-85
2024/02/16 12:05:33;;;;;;;0.30;0.30;;;;;;;;;;5016955;28;20390;-83
2024/02/16 12:08:00;;;;;;;0.20;0.20;;;;;;;;;;5017020;28;20558;-86
2024/02/16 12:10:27;;;;;;;0.60;0.60;;;;;;;;;;5016978;28;20033;-84
2024/02/16 12:12:53;;;;;;;0.50;0.50;;;;;;;;;;5016785;28;20294;-84
2024/02/16 12:15:20;;;;;;;0.40;0.40;;;;;;;;;;5017152;28;20033;-84
2024/02/16 12:17:46;;;;;;;0.20;0.20;;;;;;;;;;5016516;28;20037;-84
2024/02/16 12:20:13;;;;;;;0.20;0.20;;;;;;;;;;5016544;28;20037;-84
2024/02/16 12:22:39;;;;;;;0.20;0.20;;;;;;;;;;5016578;28;20043;-84
2024/02/16 12:25:06;;;;;;;1.65;0.30;;;;;;;;;;5000508;28;20128;-83
2024/02/16 12:27:32;;;;;;;0.10;0.10;;;;;;;;;;5000372;28;20052;-83
2024/02/16 12:29:59;;;;;;;0.10;0.10;;;;;;;;;;5016459;28;20095;-84
2024/02/16 12:32:25;;;;;;;0.10;0.10;;;;;;;;;;5000366;28;20041;-83
2024/02/16 12:34:51;;;;;;;0.20;0.20;;;;;;;;;;5016432;28;20127;-83
2024/02/16 12:37:18;;;;;;;0.20;0.20;;;;;;;;;;5016522;28;20552;-83
2024/02/16 12:39:45;;;;;;;0.10;0.10;;;;;;;;;;5032773;28;20049;-82
2024/02/16 12:42:12;;;;;;;0.30;0.30;;;;;;;;;;5016441;28;20045;-83
2024/02/16 12:44:39;;;;;;;0.25;0.15;;;;;;;;;;5016132;28;20037;-83
2024/02/16 12:47:05;;;;;;;0.10;0.10;;;;;;;;;;4999792;28;20038;-82
2024/02/16 12:49:31;;;;;;;0.10;0.10;;;;;;;;;;5016230;28;20072;-83
2024/02/16 12:51:58;;;;;;;0.20;0.20;;;;;;;;;;5015982;28;20045;-83
2024/02/16 12:54:24;;;;;;;0.10;0.10;;;;;;;;;;5016075;28;20065;-83
2024/02/16 12:56:51;;;;;;;0.10;0.10;;;;;;;;;;4999919;28;20071;-83
2024/02/16 12:59:17;;;;;;;0.30;0.30;;;;;;;;;;5015014;28;20044;-83
2024/02/16 13:01:43;;;;;;;0.20;0.20;;;;;;;;;;5015999;28;20060;-83
2024/02/16 13:04:09;;;;;;;0.10;0.10;;;;;;;;;;4999502;28;20047;-83
2024/02/16 13:06:36;;;;;;;0.10;0.10;;;;;;;;;;5015991;28;20437;-83
2024/02/16 13:09:02;;;;;;;0.10;0.10;;;;;;;;;;4999444;28;20048;-83
2024/02/16 13:11:29;;;;;;;0.10;0.10;;;;;;;;;;5015497;28;20049;-83
2024/02/16 13:13:55;;;;;;;0.20;0.20;;;;;;;;;;5015715;28;20076;-83
2024/02/16 13:16:21;;;;;;;0.10;0.10;;;;;;;;;;5015613;28;20567;-83
2024/02/16 13:18:47;;;;;;;0.10;0.10;;;;;;;;;;5015426;28;20048;-82
2024/02/16 13:21:15;;;;;;;0.28;0.28;;;;;;;;;;5015625;28;20046;-83
2024/02/16 13:23:41;;;;;;;0.20;0.20;;;;;;;;;;4999061;28;20159;-83
2024/02/16 13:26:07;;;;;;;0.10;0.10;;;;;;;;;;5015441;28;20048;-83
2024/02/16 13:28:33;;;;;;;0.20;0.20;;;;;;;;;;5015354;28;20046;-83
2024/02/16 13:30:59;;;;;;;0.10;0.10;;;;;;;;;;5015456;28;20041;-83
2024/02/16 13:33:26;;;;;;;0.13;0.13;;;;;;;;;;5015663;28;20436;-83
2024/02/16 13:35:52;;;;;;;0.10;0.10;;;;;;;;;;4999115;28;20056;-83
2024/02/16 13:38:18;;;;;;;0.10;0.10;;;;;;;;;;5015401;28;20045;-83
2024/02/16 13:40:44;;;;;;;0.10;0.10;;;;;;;;;;5015304;28;20045;-83
2024/02/16 13:43:11;;;;;;;0.35;0.35;;;;;;;;;;4998871;28;20045;-83
2024/02/16 13:45:48;;;;;;;0.55;0.45;;;;;;;;;;5015098;28;20045;-83
2024/02/16 13:48:14;;;;;;;0.20;0.20;;;;;;;;;;5015422;28;20330;-83
2024/02/16 13:50:40;;;;;;;0.10;0.10;;;;;;;;;;5014982;28;20073;-83
2024/02/16 13:53:06;;;;;;;0.10;0.10;;;;;;;;;;4999019;28;20393;-83
2024/02/16 13:55:32;;;;;;;0.15;0.15;;;;;;;;;;4998295;28;20049;-83
2024/02/16 13:57:58;;;;;;;0.20;0.20;;;;;;;;;;4998729;28;20504;-83
2024/02/16 14:00:24;;;;;;;0.40;0.40;;;;;;;;;;5014926;28;20494;-81
2024/02/16 14:02:50;;;;;;;0.40;0.30;;;;;;;;;;5015080;28;20124;-83
2024/02/16 14:05:16;;;;;;;0.10;0.10;;;;;;;;;;5014747;28;20038;-83
2024/02/16 14:07:42;;;;;;;0.10;0.10;;;;;;;;;;5014686;28;20077;-83
2024/02/16 14:10:09;;;;;;;0.10;0.10;;;;;;;;;;5014373;28;20041;-83
2024/02/16 14:12:35;;;;;;;0.20;0.20;;;;;;;;;;5014141;28;20504;-83
2024/02/16 14:15:01;;;;;;;0.10;0.10;;;;;;;;;;5014519;28;20085;-83
2024/02/16 14:17:28;;;;;;;0.15;0.15;;;;;;;;;;4998483;28;20045;-83
2024/02/16 14:19:54;;;;;;;0.20;0.20;;;;;;;;;;5014497;28;20481;-83
2024/02/16 14:22:20;;;;;;;0.10;0.10;;;;;;;;;;5014544;28;20082;-83
2024/02/16 14:24:46;;;;;;;0.10;0.10;;;;;;;;;;4998097;28;20068;-83
2024/02/16 14:27:12;;;;;;;0.70;0.70;;;;;;;;;;5014529;28;20037;-83
2024/02/16 14:29:38;;;;;;;0.10;0.10;;;;;;;;;;4998006;28;20049;-83
2024/02/16 14:32:04;;;;;;;0.30;0.30;;;;;;;;;;5014594;28;20041;-83
2024/02/16 14:34:30;;;;;;;0.30;0.30;;;;;;;;;;5014502;28;20112;-83
2024/02/16 14:36:57;;;;;;;0.20;0.20;;;;;;;;;;4998128;28;20041;-83
2024/02/16 14:39:25;;;;;;;0.10;0.10;;;;;;;;;;5014162;28;20073;-83